aviador You're here:

KCON Decoded Metar

CONCORD in NH, USA
Report Time2017-05-26 12:51:00
UTC Time2017-05-26 13:07:41
Flight Rules mvfr MVFR
Wind030° at 08 kt
W.Decomp.*RWY 35: 4.5 kt HW 6.6 kt RCW
RWY 12: 2.2 kt HW 7.7 kt LCW
W.Rank030° ranks 26
Current wind is above 030° avg. (5.3)
Visibility9999 m
Phenomena:N/A
Clouds:Overcast 014 Hf
Expected CloudBase > 800 ft AGL from Temp-Dew spread
Ceiling1,400 ft
Temp11°C (ISA -3)
Dew Point09°C (88% RH)
AAT7.9°C
QNH1000 hPa
Density Alt541 ft
Elevation338 ft
Report Wrong Elevation
Raw Report
METAR KCON 261251Z AUTO 03008KT 010V070 9SM OVC014 11/09 A2953 RMK
AO2 SLP001 T01060089=

Extra information for KCON:More info

Metar Taf Metar & Taf Last 4 Metars F.Rules Stats Wind Profile Meteogram Temp Stats Airport Information Weather charts Add Link Nearby VenuesMetar ALERT Operation Metar Decoded Social comments

AIRNAV info for KCON